createdAt,value
2023-08-17T00:00:04.033Z,1.88
2023-08-17T00:02:31.033Z,1.98
2023-08-17T00:04:58.065Z,1.88
2023-08-17T00:07:28.077Z,1.92
2023-08-17T00:09:55.283Z,1.98
2023-08-17T00:12:22.326Z,1.93
2023-08-17T00:14:49.504Z,1.87
2023-08-17T00:17:16.526Z,2.08
2023-08-17T00:19:43.686Z,2.09
2023-08-17T00:22:10.928Z,2.03
2023-08-17T00:24:40.607Z,2.14
2023-08-17T00:27:07.670Z,1.88
2023-08-17T00:29:34.726Z,2.13
2023-08-17T00:32:01.827Z,2.19
2023-08-17T00:34:29.062Z,2.08
2023-08-17T00:36:56.125Z,2.26
2023-08-17T00:39:23.132Z,2.17
2023-08-17T00:41:53.046Z,2.10
2023-08-17T00:44:20.488Z,2.20
2023-08-17T00:46:47.578Z,2.19
2023-08-17T00:49:15.004Z,2.11
2023-08-17T00:51:42.634Z,2.14
2023-08-17T00:54:11.859Z,2.16
2023-08-17T00:56:39.098Z,1.95
2023-08-17T00:59:09.948Z,1.96
2023-08-17T01:01:37.236Z,1.99
2023-08-17T01:04:04.818Z,2.11
2023-08-17T01:06:31.859Z,2.30
2023-08-17T01:08:59.064Z,2.26
2023-08-17T01:11:35.747Z,2.22
2023-08-17T01:14:11.315Z,2.30
2023-08-17T01:16:45.077Z,2.29
2023-08-17T01:19:19.747Z,2.39
2023-08-17T01:21:51.898Z,2.30
2023-08-17T01:24:21.560Z,2.40
2023-08-17T01:26:48.568Z,2.45
2023-08-17T01:29:16.350Z,2.44
2023-08-17T01:31:55.321Z,2.52
2023-08-17T01:34:27.716Z,2.63
2023-08-17T01:36:58.658Z,2.66
2023-08-17T01:39:41.632Z,2.73
2023-08-17T01:42:09.748Z,2.57
2023-08-17T01:44:37.104Z,2.54
2023-08-17T01:47:04.641Z,2.59
2023-08-17T01:49:31.671Z,2.70
2023-08-17T01:51:58.740Z,2.58
2023-08-17T01:54:28.440Z,2.72
2023-08-17T01:56:55.478Z,2.72
2023-08-17T01:59:22.547Z,2.52
2023-08-17T02:01:49.574Z,2.61
2023-08-17T02:04:17.240Z,2.63
2023-08-17T02:06:44.242Z,2.60
2023-08-17T02:09:11.453Z,2.46
2023-08-17T02:11:41.065Z,2.68
2023-08-17T02:14:08.152Z,2.60
2023-08-17T02:16:35.266Z,2.77
2023-08-17T02:19:02.373Z,2.96
2023-08-17T02:21:29.445Z,2.75
2023-08-17T02:23:56.484Z,2.62
2023-08-17T02:26:23.541Z,2.54
2023-08-17T02:28:53.276Z,2.74
2023-08-17T02:31:20.407Z,2.72
2023-08-17T02:33:47.417Z,2.69
2023-08-17T02:36:14.491Z,2.61
2023-08-17T02:38:41.604Z,2.58
2023-08-17T02:41:08.846Z,2.60
2023-08-17T02:43:35.909Z,2.64
2023-08-17T02:46:05.666Z,2.83
2023-08-17T02:48:33.302Z,2.96
2023-08-17T02:51:00.588Z,2.65
2023-08-17T02:53:27.645Z,2.52
2023-08-17T02:55:54.665Z,2.66
2023-08-17T02:58:21.833Z,2.71
2023-08-17T03:00:48.890Z,2.87
2023-08-17T03:03:18.578Z,2.67
2023-08-17T03:05:45.654Z,2.94
2023-08-17T03:08:12.779Z,2.77
2023-08-17T03:10:39.849Z,2.53
2023-08-17T03:13:06.917Z,2.66
2023-08-17T03:15:34.069Z,2.79
2023-08-17T03:18:01.214Z,2.83
2023-08-17T03:20:30.904Z,3.33
2023-08-17T03:22:57.978Z,3.31
2023-08-17T03:25:25.104Z,3.35
2023-08-17T03:27:52.175Z,3.34
2023-08-17T03:30:19.273Z,4.15
2023-08-17T03:32:46.306Z,3.76
2023-08-17T03:35:13.506Z,3.43
2023-08-17T03:37:43.236Z,3.70
2023-08-17T03:40:10.653Z,3.48
2023-08-17T03:42:37.659Z,3.21
2023-08-17T03:45:06.065Z,3.21
2023-08-17T03:47:33.138Z,3.29
2023-08-17T03:50:00.230Z,3.25
2023-08-17T03:52:27.310Z,3.32
2023-08-17T03:54:56.986Z,3.78
2023-08-17T03:57:24.168Z,3.46
2023-08-17T03:59:51.500Z,3.27
2023-08-17T04:02:18.495Z,3.72
2023-08-17T04:04:45.537Z,3.58
2023-08-17T04:07:12.670Z,3.79
2023-08-17T04:09:44.635Z,3.80
2023-08-17T04:12:14.284Z,4.51
2023-08-17T04:14:41.327Z,4.38
2023-08-17T04:17:08.430Z,4.45
2023-08-17T04:19:35.462Z,4.04
2023-08-17T04:22:02.526Z,3.83
2023-08-17T04:24:29.568Z,3.49
2023-08-17T04:26:56.830Z,3.55
2023-08-17T04:29:26.510Z,3.62
2023-08-17T04:31:54.310Z,3.77
2023-08-17T04:34:21.502Z,4.15
2023-08-17T04:36:48.569Z,3.62
2023-08-17T04:39:15.686Z,4.11
2023-08-17T04:41:42.975Z,3.59
2023-08-17T04:44:10.078Z,3.50
2023-08-17T04:46:39.765Z,3.38
2023-08-17T04:49:06.849Z,3.78
2023-08-17T04:51:33.882Z,3.48
2023-08-17T04:54:00.948Z,3.71
2023-08-17T04:56:28.018Z,4.21
2023-08-17T04:58:55.107Z,3.57
2023-08-17T05:01:22.171Z,3.83
2023-08-17T05:03:51.931Z,3.30
2023-08-17T05:06:19.046Z,3.13
2023-08-17T05:08:46.066Z,3.27
2023-08-17T05:11:13.315Z,4.08
2023-08-17T05:13:40.348Z,4.20
2023-08-17T05:16:07.473Z,3.43
2023-08-17T05:18:34.562Z,4.28
2023-08-17T05:21:04.457Z,3.88
2023-08-17T05:23:31.495Z,3.36
2023-08-17T05:25:58.671Z,3.96
2023-08-17T05:28:25.813Z,4.10
2023-08-17T05:30:52.849Z,3.87
2023-08-17T05:33:19.880Z,4.21
2023-08-17T05:35:46.908Z,4.14
2023-08-17T05:38:16.544Z,3.88
2023-08-17T05:40:43.609Z,4.02
2023-08-17T05:43:10.679Z,4.60
2023-08-17T05:45:37.698Z,4.57
2023-08-17T05:48:06.370Z,5.64
2023-08-17T05:50:33.665Z,5.07
2023-08-17T05:53:02.164Z,5.53
2023-08-17T05:55:32.432Z,5.37
2023-08-17T05:58:01.407Z,5.18
2023-08-17T06:00:28.447Z,5.80
2023-08-17T06:02:55.719Z,6.02
2023-08-17T06:05:24.671Z,5.42
2023-08-17T06:07:51.771Z,5.00
2023-08-17T06:10:18.935Z,4.66
2023-08-17T06:12:48.560Z,5.15
2023-08-17T06:15:15.943Z,5.16
2023-08-17T06:17:44.013Z,4.94
2023-08-17T06:20:13.124Z,4.53
2023-08-17T06:22:40.198Z,4.86
2023-08-17T06:25:08.304Z,4.73
2023-08-17T06:27:35.655Z,4.81
2023-08-17T06:30:06.625Z,4.61
2023-08-17T06:32:33.752Z,4.75
2023-08-17T06:35:00.951Z,4.48
2023-08-17T06:37:28.371Z,4.54
2023-08-17T06:39:55.606Z,4.86
2023-08-17T06:42:23.054Z,4.30
2023-08-17T06:44:50.136Z,4.70
2023-08-17T06:47:19.850Z,5.28
2023-08-17T06:49:47.056Z,4.36
2023-08-17T06:52:14.118Z,4.09
2023-08-17T06:54:41.139Z,4.24
2023-08-17T06:57:08.272Z,4.34
2023-08-17T06:59:35.326Z,3.83
2023-08-17T07:02:02.749Z,3.99
2023-08-17T07:04:32.637Z,3.89
2023-08-17T07:07:00.122Z,3.92
2023-08-17T07:09:27.277Z,4.32
2023-08-17T07:11:54.357Z,4.22
2023-08-17T07:14:23.089Z,4.04
2023-08-17T07:16:50.401Z,4.21
2023-08-17T07:19:17.603Z,4.46
2023-08-17T07:21:47.282Z,3.81
2023-08-17T07:24:16.627Z,4.09
2023-08-17T07:26:44.922Z,4.67
2023-08-17T07:29:12.203Z,4.72
2023-08-17T07:31:40.705Z,4.57
2023-08-17T07:34:09.459Z,4.20
2023-08-17T07:36:36.591Z,4.34
2023-08-17T07:39:06.290Z,4.21
2023-08-17T07:41:33.271Z,6.33
2023-08-17T07:44:00.363Z,4.78
2023-08-17T07:46:27.699Z,4.43
2023-08-17T07:48:54.866Z,4.62
2023-08-17T07:51:24.980Z,5.15
2023-08-17T07:53:52.149Z,5.06
2023-08-17T07:56:21.900Z,5.12
2023-08-17T07:58:50.335Z,5.09
2023-08-17T08:01:20.979Z,4.34
2023-08-17T08:03:48.089Z,5.00
2023-08-17T08:06:15.125Z,5.18
2023-08-17T08:08:42.149Z,5.54
2023-08-17T08:11:09.417Z,5.66
2023-08-17T08:13:39.195Z,6.05
2023-08-17T08:16:07.774Z,5.97
2023-08-17T08:18:34.792Z,5.22
2023-08-17T08:21:01.958Z,5.40
2023-08-17T08:23:29.081Z,5.17
2023-08-17T08:25:56.219Z,5.49
2023-08-17T08:28:23.289Z,5.66
2023-08-17T08:30:53.158Z,5.88
2023-08-17T08:33:23.539Z,5.80
2023-08-17T08:35:50.607Z,5.60
2023-08-17T08:38:17.645Z,5.32
2023-08-17T08:40:48.210Z,5.79
2023-08-17T08:43:15.998Z,5.56
2023-08-17T08:45:43.536Z,5.36
2023-08-17T08:48:14.943Z,5.42
2023-08-17T08:50:42.495Z,5.67
2023-08-17T08:53:15.011Z,5.73
2023-08-17T08:55:48.740Z,6.09
2023-08-17T08:58:17.586Z,5.89
2023-08-17T09:00:48.283Z,6.16
2023-08-17T09:03:19.006Z,5.70
2023-08-17T09:05:49.488Z,5.84
2023-08-17T09:08:20.112Z,5.85
2023-08-17T09:10:48.350Z,5.60
2023-08-17T09:13:15.917Z,5.95
2023-08-17T09:15:42.981Z,6.01
2023-08-17T09:18:13.787Z,6.16
2023-08-17T09:20:47.953Z,6.61
2023-08-17T09:23:17.526Z,6.60
2023-08-17T09:25:46.324Z,6.85
2023-08-17T09:28:14.626Z,6.87
2023-08-17T09:30:52.140Z,6.47
2023-08-17T09:33:19.255Z,6.05
2023-08-17T09:35:49.729Z,5.95
2023-08-17T09:38:16.788Z,5.83
2023-08-17T09:40:44.133Z,5.38
2023-08-17T09:43:12.069Z,5.74
2023-08-17T09:45:39.870Z,5.93
2023-08-17T09:48:08.437Z,5.69
2023-08-17T09:50:39.030Z,5.44
2023-08-17T09:53:13.228Z,5.69
2023-08-17T09:55:42.260Z,5.51
2023-08-17T09:58:09.289Z,5.37
2023-08-17T10:00:39.119Z,5.60
2023-08-17T10:03:08.385Z,5.83
2023-08-17T10:05:41.272Z,5.34
2023-08-17T10:08:12.923Z,6.00
2023-08-17T10:10:44.211Z,5.99
2023-08-17T10:13:12.938Z,6.89
2023-08-17T10:15:49.874Z,7.65
2023-08-17T10:18:28.023Z,7.50
2023-08-17T10:21:02.447Z,7.80
2023-08-17T10:23:33.553Z,7.53
2023-08-17T10:26:02.558Z,7.94
2023-08-17T10:28:32.047Z,8.20
2023-08-17T10:31:00.084Z,8.03
2023-08-17T10:33:29.826Z,7.88
2023-08-17T10:35:58.546Z,7.53
2023-08-17T10:38:27.351Z,7.41
2023-08-17T10:43:57.476Z,7.27
2023-08-17T10:46:35.574Z,7.36
2023-08-17T10:49:05.141Z,7.65
2023-08-17T10:51:32.303Z,7.64
2023-08-17T10:54:03.043Z,8.07
2023-08-17T10:56:34.242Z,9.07
2023-08-17T10:59:02.068Z,8.24
2023-08-17T11:01:37.441Z,7.40
2023-08-17T11:04:16.877Z,8.08
2023-08-17T11:06:44.746Z,8.81
2023-08-17T11:09:11.879Z,9.90
2023-08-17T11:11:41.814Z,9.73
2023-08-17T11:14:10.004Z,9.97
2023-08-17T11:16:37.108Z,10.17
2023-08-17T11:19:13.868Z,9.47
2023-08-17T11:21:43.288Z,9.62
2023-08-17T11:24:11.624Z,10.57
2023-08-17T11:26:42.465Z,9.55
2023-08-17T11:29:09.713Z,8.59
2023-08-17T11:31:36.849Z,8.98
2023-08-17T11:34:04.250Z,9.10
2023-08-17T11:36:31.296Z,9.80
2023-08-17T11:38:59.392Z,9.38
2023-08-17T11:41:26.596Z,9.33
2023-08-17T11:43:56.499Z,9.42
2023-08-17T11:48:55.627Z,10.18
2023-08-17T11:51:30.081Z,9.70
2023-08-17T11:54:00.098Z,9.72
2023-08-17T11:56:27.303Z,10.80
2023-08-17T11:58:56.948Z,11.72
2023-08-17T12:01:24.163Z,11.55
2023-08-17T12:03:51.577Z,11.27
2023-08-17T12:06:18.837Z,10.87
2023-08-17T12:08:48.912Z,11.22
2023-08-17T12:11:17.188Z,10.71
2023-08-17T12:13:44.350Z,11.11
2023-08-17T12:16:19.310Z,10.95
2023-08-17T12:18:46.555Z,10.71
2023-08-17T12:21:13.723Z,10.65
2023-08-17T12:23:41.246Z,10.27
2023-08-17T12:26:08.364Z,9.99
2023-08-17T12:28:35.481Z,9.47
2023-08-17T12:31:04.600Z,9.83
2023-08-17T12:33:34.377Z,8.92
2023-08-17T12:36:01.486Z,8.68
2023-08-17T12:38:28.733Z,8.92
2023-08-17T12:40:55.860Z,8.94
2023-08-17T12:43:23.022Z,9.01
2023-08-17T12:45:50.216Z,9.25
2023-08-17T12:48:17.451Z,9.00
2023-08-17T12:50:49.864Z,9.15
2023-08-17T12:53:17.086Z,8.88
2023-08-17T12:55:44.487Z,8.89
2023-08-17T12:58:11.639Z,8.86
2023-08-17T13:00:38.895Z,9.20
2023-08-17T13:03:06.167Z,9.11
2023-08-17T13:05:33.910Z,8.63
2023-08-17T13:08:04.175Z,9.11
2023-08-17T13:10:31.318Z,9.17
2023-08-17T13:12:58.493Z,9.42
2023-08-17T13:15:27.613Z,8.94
2023-08-17T13:17:57.737Z,9.53
2023-08-17T13:20:25.067Z,9.43
2023-08-17T13:22:52.098Z,9.41
2023-08-17T13:25:21.970Z,9.80
2023-08-17T13:27:49.160Z,9.76
2023-08-17T13:30:16.291Z,8.99
2023-08-17T13:32:44.999Z,9.13
2023-08-17T13:35:15.869Z,8.90
2023-08-17T13:37:43.039Z,9.10
2023-08-17T13:40:11.382Z,8.57
2023-08-17T13:42:42.279Z,8.27
2023-08-17T13:45:09.941Z,8.01
2023-08-17T13:47:37.139Z,7.88
2023-08-17T13:50:07.604Z,8.07
2023-08-17T13:52:34.832Z,8.47
2023-08-17T13:55:02.124Z,7.52
2023-08-17T13:57:29.255Z,7.70
2023-08-17T13:59:59.060Z,7.72
2023-08-17T14:02:29.842Z,7.73
2023-08-17T14:04:58.291Z,7.60
2023-08-17T14:07:25.565Z,7.39
2023-08-17T14:10:05.642Z,7.83
2023-08-17T14:12:34.406Z,7.45
2023-08-17T14:15:04.878Z,7.42
2023-08-17T14:17:31.971Z,7.33
2023-08-17T14:19:59.064Z,7.04
2023-08-17T14:22:26.972Z,6.78
2023-08-17T14:24:54.311Z,7.53
2023-08-17T14:27:21.727Z,7.47
2023-08-17T14:29:48.993Z,7.71
2023-08-17T14:32:18.890Z,7.12
2023-08-17T14:34:46.023Z,6.53
2023-08-17T14:37:13.106Z,6.60
2023-08-17T14:39:41.880Z,6.76
2023-08-17T14:42:09.006Z,6.62
2023-08-17T14:44:41.019Z,6.42
2023-08-17T14:47:08.060Z,6.43
2023-08-17T14:49:37.811Z,6.21
2023-08-17T14:52:06.170Z,6.11
2023-08-17T14:54:33.583Z,6.10
2023-08-17T14:57:00.781Z,6.96
2023-08-17T14:59:27.877Z,5.78
2023-08-17T15:01:55.094Z,6.08
2023-08-17T15:04:25.725Z,6.19
2023-08-17T15:06:56.008Z,5.93
2023-08-17T15:09:23.076Z,5.64
2023-08-17T15:11:55.275Z,5.54
2023-08-17T15:14:25.288Z,5.77
2023-08-17T15:16:59.950Z,6.11
2023-08-17T15:19:39.234Z,6.42
2023-08-17T15:22:15.511Z,6.39
2023-08-17T15:24:43.040Z,6.53
2023-08-17T15:27:10.246Z,6.64
2023-08-17T15:29:37.353Z,6.96
2023-08-17T15:32:04.783Z,7.05
2023-08-17T15:34:31.909Z,7.06
2023-08-17T15:36:58.979Z,7.26
2023-08-17T15:39:28.705Z,7.02
2023-08-17T15:41:57.061Z,8.03
2023-08-17T15:44:24.116Z,7.92
2023-08-17T15:46:52.548Z,8.16
2023-08-17T15:49:22.783Z,8.83
2023-08-17T15:51:50.062Z,7.82
2023-08-17T15:54:29.627Z,7.80
2023-08-17T15:57:04.286Z,7.95
2023-08-17T15:59:31.683Z,7.86
2023-08-17T16:01:58.888Z,8.39
2023-08-17T16:04:26.043Z,7.87
2023-08-17T16:06:53.252Z,7.82
2023-08-17T16:09:21.710Z,8.82
2023-08-17T16:11:48.861Z,8.21
2023-08-17T16:14:18.539Z,8.19
2023-08-17T16:16:45.985Z,8.10
2023-08-17T16:19:13.318Z,8.37
2023-08-17T16:21:40.400Z,8.13
2023-08-17T16:24:07.803Z,8.23
2023-08-17T16:26:35.570Z,8.99
2023-08-17T16:29:02.868Z,9.15
2023-08-17T16:31:35.373Z,8.86
2023-08-17T16:34:02.641Z,8.87
2023-08-17T16:36:29.710Z,9.39
2023-08-17T16:38:56.841Z,9.71
2023-08-17T16:41:24.013Z,9.85
2023-08-17T16:43:51.119Z,10.01
2023-08-17T16:46:18.231Z,11.54
2023-08-17T16:48:47.960Z,10.14
2023-08-17T16:51:15.080Z,9.63
2023-08-17T16:53:44.496Z,10.27
2023-08-17T16:56:11.688Z,9.69
2023-08-17T16:58:40.051Z,10.20
2023-08-17T17:01:14.495Z,9.41
2023-08-17T17:03:43.514Z,9.87
2023-08-17T17:06:13.206Z,9.86
2023-08-17T17:08:40.316Z,8.89
2023-08-17T17:11:07.452Z,8.89
2023-08-17T17:13:34.575Z,8.34
2023-08-17T17:16:01.914Z,8.96
2023-08-17T17:18:29.029Z,8.24
2023-08-17T17:20:56.170Z,8.81
2023-08-17T17:23:25.919Z,8.33
2023-08-17T17:25:53.007Z,9.33
2023-08-17T17:28:20.115Z,8.69
2023-08-17T17:30:47.207Z,8.79
2023-08-17T17:33:14.459Z,9.20
2023-08-17T17:35:41.511Z,9.83
2023-08-17T17:38:08.623Z,10.52
2023-08-17T17:40:38.243Z,9.28
2023-08-17T17:43:05.444Z,9.49
2023-08-17T17:45:32.521Z,9.34
2023-08-17T17:47:59.646Z,9.04
2023-08-17T17:50:26.879Z,8.90
2023-08-17T17:52:53.995Z,10.18
2023-08-17T17:55:21.257Z,9.75
2023-08-17T17:57:50.872Z,9.90
2023-08-17T18:00:18.279Z,9.73
2023-08-17T18:02:45.427Z,9.97
2023-08-17T18:05:12.655Z,9.91
2023-08-17T18:07:39.685Z,9.85
2023-08-17T18:10:08.097Z,9.81
2023-08-17T18:12:35.186Z,10.56
2023-08-17T18:15:06.021Z,10.14
2023-08-17T18:17:33.088Z,9.94
2023-08-17T18:20:00.176Z,9.46
2023-08-17T18:22:27.363Z,10.44
2023-08-17T18:24:54.530Z,10.18
2023-08-17T18:27:21.599Z,10.59
2023-08-17T18:29:51.496Z,10.06
2023-08-17T18:32:21.170Z,9.68
2023-08-17T18:34:48.232Z,10.00
2023-08-17T18:37:15.256Z,9.85
2023-08-17T18:39:42.280Z,9.48
2023-08-17T18:42:09.364Z,9.43
2023-08-17T18:44:36.416Z,9.99
2023-08-17T18:47:03.818Z,9.17
2023-08-17T18:49:33.735Z,9.85
2023-08-17T18:52:00.866Z,9.83
2023-08-17T18:54:27.958Z,9.58
2023-08-17T18:56:55.076Z,9.74
2023-08-17T18:59:22.516Z,9.85
2023-08-17T19:01:49.695Z,10.06
2023-08-17T19:04:16.870Z,10.34
2023-08-17T19:06:46.694Z,10.51
2023-08-17T19:09:13.759Z,9.83
2023-08-17T19:11:40.857Z,10.17
2023-08-17T19:14:07.940Z,10.20
2023-08-17T19:16:35.152Z,10.29
2023-08-17T19:19:07.806Z,9.88
2023-08-17T19:21:34.886Z,10.04
2023-08-17T19:24:04.901Z,10.36
2023-08-17T19:26:32.021Z,10.23
2023-08-17T19:28:59.246Z,10.24
2023-08-17T19:31:26.422Z,10.08
2023-08-17T19:33:55.697Z,10.43
2023-08-17T19:36:22.822Z,9.77
2023-08-17T19:38:49.994Z,9.79
2023-08-17T19:41:19.604Z,9.48
2023-08-17T19:43:46.822Z,9.71
2023-08-17T19:46:14.045Z,9.57
2023-08-17T19:48:41.151Z,10.06
2023-08-17T19:51:08.217Z,10.19
2023-08-17T19:53:35.339Z,10.49
2023-08-17T19:56:02.498Z,11.49
2023-08-17T19:58:32.146Z,10.95
2023-08-17T20:01:04.837Z,10.48
2023-08-17T20:03:32.110Z,11.95
2023-08-17T20:05:59.310Z,12.19
2023-08-17T20:08:26.417Z,12.97
2023-08-17T20:10:53.608Z,11.80
2023-08-17T20:13:20.692Z,10.92
2023-08-17T20:15:54.294Z,10.96
2023-08-17T20:18:21.382Z,10.93
2023-08-17T20:20:51.727Z,10.53
2023-08-17T20:23:18.912Z,11.45
2023-08-17T20:25:46.136Z,11.24
2023-08-17T20:28:13.189Z,10.72
2023-08-17T20:30:40.235Z,11.56
2023-08-17T20:33:10.161Z,11.46
2023-08-17T20:35:37.335Z,11.16
2023-08-17T20:38:04.972Z,10.69
2023-08-17T20:40:32.238Z,10.86
2023-08-17T20:42:59.469Z,10.39
2023-08-17T20:45:26.575Z,10.89
2023-08-17T20:47:54.843Z,10.85
2023-08-17T20:50:24.558Z,10.69
2023-08-17T20:52:51.694Z,10.80
2023-08-17T20:55:18.898Z,10.63
2023-08-17T20:57:45.956Z,10.42
2023-08-17T21:00:13.718Z,10.44
2023-08-17T21:02:41.138Z,10.51
2023-08-17T21:05:09.157Z,10.09
2023-08-17T21:07:38.905Z,10.11
2023-08-17T21:10:07.584Z,10.09
2023-08-17T21:12:34.657Z,9.94
2023-08-17T21:15:01.904Z,9.65
2023-08-17T21:17:29.292Z,9.87
2023-08-17T21:19:56.662Z,9.84
2023-08-17T21:22:23.835Z,9.89
2023-08-17T21:24:54.120Z,9.70
2023-08-17T21:27:21.295Z,9.75
2023-08-17T21:29:48.492Z,10.37
2023-08-17T21:32:15.590Z,10.13
2023-08-17T21:34:42.749Z,9.51
2023-08-17T21:37:10.005Z,10.31
2023-08-17T21:39:37.492Z,9.75
2023-08-17T21:42:07.522Z,10.00
2023-08-17T21:44:34.668Z,9.74
2023-08-17T21:47:01.804Z,10.44
2023-08-17T21:49:28.959Z,9.93
2023-08-17T21:51:56.039Z,9.96
2023-08-17T21:54:23.118Z,10.20
2023-08-17T21:56:50.183Z,10.27
2023-08-17T21:59:19.875Z,9.90
2023-08-17T22:01:47.949Z,10.58
2023-08-17T22:04:15.010Z,10.19
2023-08-17T22:06:42.058Z,10.12
2023-08-17T22:09:09.247Z,10.53
2023-08-17T22:11:36.291Z,10.08
2023-08-17T22:14:03.503Z,10.01
2023-08-17T22:16:33.199Z,9.96
2023-08-17T22:19:00.301Z,10.37
2023-08-17T22:21:27.421Z,10.51
2023-08-17T22:23:54.532Z,10.35
2023-08-17T22:26:21.631Z,10.60
2023-08-17T22:28:48.714Z,10.01
2023-08-17T22:31:15.854Z,10.22
2023-08-17T22:33:45.677Z,10.74
2023-08-17T22:36:12.824Z,10.22
2023-08-17T22:38:40.731Z,10.08
2023-08-17T22:41:07.920Z,9.89
2023-08-17T22:43:35.010Z,11.33
2023-08-17T22:46:03.249Z,10.53
2023-08-17T22:48:30.409Z,10.22
2023-08-17T22:51:00.070Z,10.01
2023-08-17T22:53:27.186Z,10.60
2023-08-17T22:55:54.325Z,10.64
2023-08-17T22:58:21.561Z,10.33
2023-08-17T23:00:51.565Z,10.81
2023-08-17T23:03:18.661Z,11.51
2023-08-17T23:05:45.703Z,10.93
2023-08-17T23:08:15.450Z,10.24
2023-08-17T23:10:42.578Z,10.43
2023-08-17T23:13:09.691Z,10.68
2023-08-17T23:15:36.990Z,11.11
2023-08-17T23:18:04.473Z,11.23
2023-08-17T23:20:34.642Z,11.07
2023-08-17T23:23:01.708Z,10.48
2023-08-17T23:25:31.416Z,10.48
2023-08-17T23:27:58.532Z,10.93
2023-08-17T23:30:25.614Z,10.69
2023-08-17T23:32:52.840Z,10.82
2023-08-17T23:35:19.966Z,10.41
2023-08-17T23:37:47.023Z,10.34
2023-08-17T23:40:14.109Z,10.82
2023-08-17T23:42:44.636Z,10.68
2023-08-17T23:45:11.667Z,11.17
2023-08-17T23:47:38.746Z,10.64
2023-08-17T23:50:06.930Z,10.51
2023-08-17T23:52:34.033Z,10.44
2023-08-17T23:55:01.076Z,10.75
2023-08-17T23:57:28.462Z,10.33
2023-08-17T23:59:58.274Z,10.86
